sensor_id;sensor_type;location;lat;lon;timestamp;temperature;humidity
64549;DHT22;49838;51.798;10.954;2023-08-20T00:01:27;29.00;41.60
64549;DHT22;49838;51.798;10.954;2023-08-20T00:03:55;29.00;41.70
64549;DHT22;49838;51.798;10.954;2023-08-20T00:06:23;29.00;41.90
64549;DHT22;49838;51.798;10.954;2023-08-20T00:08:51;28.90;41.90
64549;DHT22;49838;51.798;10.954;2023-08-20T00:11:18;28.90;42.00
64549;DHT22;49838;51.798;10.954;2023-08-20T00:13:46;28.90;42.00
64549;DHT22;49838;51.798;10.954;2023-08-20T00:16:15;28.90;42.30
64549;DHT22;49838;51.798;10.954;2023-08-20T00:18:42;28.90;42.50
64549;DHT22;49838;51.798;10.954;2023-08-20T00:21:10;28.80;42.50
64549;DHT22;49838;51.798;10.954;2023-08-20T00:23:38;28.80;42.50
64549;DHT22;49838;51.798;10.954;2023-08-20T00:26:06;28.80;42.60
64549;DHT22;49838;51.798;10.954;2023-08-20T00:28:33;28.80;42.80
64549;DHT22;49838;51.798;10.954;2023-08-20T00:31:02;28.80;42.90
64549;DHT22;49838;51.798;10.954;2023-08-20T00:33:31;28.70;42.70
64549;DHT22;49838;51.798;10.954;2023-08-20T00:35:58;28.80;42.60
64549;DHT22;49838;51.798;10.954;2023-08-20T00:38:33;28.80;42.60
64549;DHT22;49838;51.798;10.954;2023-08-20T00:41:00;28.70;42.40
64549;DHT22;49838;51.798;10.954;2023-08-20T00:43:27;28.70;42.50
64549;DHT22;49838;51.798;10.954;2023-08-20T00:45:54;28.70;42.70
64549;DHT22;49838;51.798;10.954;2023-08-20T00:48:22;28.70;42.80
64549;DHT22;49838;51.798;10.954;2023-08-20T00:50:52;28.70;42.80
64549;DHT22;49838;51.798;10.954;2023-08-20T00:53:19;28.70;43.10
64549;DHT22;49838;51.798;10.954;2023-08-20T00:55:47;28.60;43.10
64549;DHT22;49838;51.798;10.954;2023-08-20T00:58:14;28.60;43.40
64549;DHT22;49838;51.798;10.954;2023-08-20T01:00:41;28.60;43.40
64549;DHT22;49838;51.798;10.954;2023-08-20T01:03:09;28.60;43.60
64549;DHT22;49838;51.798;10.954;2023-08-20T01:05:37;28.50;43.50
64549;DHT22;49838;51.798;10.954;2023-08-20T01:08:16;28.50;43.70
64549;DHT22;49838;51.798;10.954;2023-08-20T01:10:53;28.50;44.00
64549;DHT22;49838;51.798;10.954;2023-08-20T01:13:26;28.40;44.20
64549;DHT22;49838;51.798;10.954;2023-08-20T01:15:53;28.40;44.30
64549;DHT22;49838;51.798;10.954;2023-08-20T01:18:20;28.40;44.50
64549;DHT22;49838;51.798;10.954;2023-08-20T01:20:51;28.40;44.60
64549;DHT22;49838;51.798;10.954;2023-08-20T01:23:29;28.30;44.70
64549;DHT22;49838;51.798;10.954;2023-08-20T01:26:21;28.30;44.80
64549;DHT22;49838;51.798;10.954;2023-08-20T01:29:02;28.30;44.70
64549;DHT22;49838;51.798;10.954;2023-08-20T01:31:31;28.30;44.90
64549;DHT22;49838;51.798;10.954;2023-08-20T01:34:00;28.20;45.00
64549;DHT22;49838;51.798;10.954;2023-08-20T01:36:28;28.20;45.00
64549;DHT22;49838;51.798;10.954;2023-08-20T01:38:55;28.20;45.10
64549;DHT22;49838;51.798;10.954;2023-08-20T01:41:23;28.20;45.10
64549;DHT22;49838;51.798;10.954;2023-08-20T01:43:50;28.20;45.20
64549;DHT22;49838;51.798;10.954;2023-08-20T01:46:19;28.10;45.20
64549;DHT22;49838;51.798;10.954;2023-08-20T01:48:46;28.10;45.30
64549;DHT22;49838;51.798;10.954;2023-08-20T01:51:13;28.10;45.40
64549;DHT22;49838;51.798;10.954;2023-08-20T01:53:41;28.10;45.50
64549;DHT22;49838;51.798;10.954;2023-08-20T01:56:10;28.10;45.30
64549;DHT22;49838;51.798;10.954;2023-08-20T01:58:38;28.10;45.30
64549;DHT22;49838;51.798;10.954;2023-08-20T02:01:06;28.10;45.30
64549;DHT22;49838;51.798;10.954;2023-08-20T02:03:36;28.00;45.30
64549;DHT22;49838;51.798;10.954;2023-08-20T02:06:03;28.10;45.30
64549;DHT22;49838;51.798;10.954;2023-08-20T02:08:31;28.10;45.30
64549;DHT22;49838;51.798;10.954;2023-08-20T02:11:01;28.00;45.40
64549;DHT22;49838;51.798;10.954;2023-08-20T02:13:29;28.00;45.60
64549;DHT22;49838;51.798;10.954;2023-08-20T02:15:58;28.00;45.50
64549;DHT22;49838;51.798;10.954;2023-08-20T02:18:25;27.90;45.50
64549;DHT22;49838;51.798;10.954;2023-08-20T02:20:54;27.90;45.80
64549;DHT22;49838;51.798;10.954;2023-08-20T02:23:22;27.90;45.50
64549;DHT22;49838;51.798;10.954;2023-08-20T02:25:49;27.90;45.50
64549;DHT22;49838;51.798;10.954;2023-08-20T02:28:16;27.90;45.60
64549;DHT22;49838;51.798;10.954;2023-08-20T02:30:44;27.90;45.70
64549;DHT22;49838;51.798;10.954;2023-08-20T02:33:13;27.90;45.80
64549;DHT22;49838;51.798;10.954;2023-08-20T02:35:40;27.90;45.80
64549;DHT22;49838;51.798;10.954;2023-08-20T02:38:09;27.90;45.90
64549;DHT22;49838;51.798;10.954;2023-08-20T02:40:40;27.80;46.00
64549;DHT22;49838;51.798;10.954;2023-08-20T02:43:08;27.70;46.10
64549;DHT22;49838;51.798;10.954;2023-08-20T02:45:41;27.70;46.90
64549;DHT22;49838;51.798;10.954;2023-08-20T02:48:09;27.70;46.30
64549;DHT22;49838;51.798;10.954;2023-08-20T02:50:36;27.60;46.30
64549;DHT22;49838;51.798;10.954;2023-08-20T02:53:03;27.50;46.40
64549;DHT22;49838;51.798;10.954;2023-08-20T02:55:32;27.50;46.30
64549;DHT22;49838;51.798;10.954;2023-08-20T02:58:01;27.50;46.10
64549;DHT22;49838;51.798;10.954;2023-08-20T03:00:29;27.40;45.90
64549;DHT22;49838;51.798;10.954;2023-08-20T03:02:57;27.40;45.80
64549;DHT22;49838;51.798;10.954;2023-08-20T03:05:24;27.40;45.60
64549;DHT22;49838;51.798;10.954;2023-08-20T03:07:51;27.40;45.60
64549;DHT22;49838;51.798;10.954;2023-08-20T03:10:19;27.40;45.90
64549;DHT22;49838;51.798;10.954;2023-08-20T03:12:47;27.30;45.80
64549;DHT22;49838;51.798;10.954;2023-08-20T03:15:15;27.30;45.80
64549;DHT22;49838;51.798;10.954;2023-08-20T03:17:42;27.30;45.80
64549;DHT22;49838;51.798;10.954;2023-08-20T03:20:10;27.30;45.60
64549;DHT22;49838;51.798;10.954;2023-08-20T03:22:38;27.30;45.60
64549;DHT22;49838;51.798;10.954;2023-08-20T03:25:05;27.30;45.60
64549;DHT22;49838;51.798;10.954;2023-08-20T03:27:33;27.30;45.50
64549;DHT22;49838;51.798;10.954;2023-08-20T03:30:02;27.20;45.40
64549;DHT22;49838;51.798;10.954;2023-08-20T03:32:30;27.20;45.30
64549;DHT22;49838;51.798;10.954;2023-08-20T03:34:58;27.20;45.20
64549;DHT22;49838;51.798;10.954;2023-08-20T03:37:25;27.30;45.20
64549;DHT22;49838;51.798;10.954;2023-08-20T03:39:53;27.20;45.00
64549;DHT22;49838;51.798;10.954;2023-08-20T03:42:20;27.30;45.00
64549;DHT22;49838;51.798;10.954;2023-08-20T03:44:47;27.30;44.80
64549;DHT22;49838;51.798;10.954;2023-08-20T03:47:16;27.30;44.80
64549;DHT22;49838;51.798;10.954;2023-08-20T03:49:46;27.30;44.70
64549;DHT22;49838;51.798;10.954;2023-08-20T03:52:14;27.30;44.70
64549;DHT22;49838;51.798;10.954;2023-08-20T03:54:41;27.40;44.70
64549;DHT22;49838;51.798;10.954;2023-08-20T03:57:08;27.30;44.60
64549;DHT22;49838;51.798;10.954;2023-08-20T03:59:36;27.30;44.60
64549;DHT22;49838;51.798;10.954;2023-08-20T04:02:03;27.30;44.60
64549;DHT22;49838;51.798;10.954;2023-08-20T04:04:32;27.40;44.50
64549;DHT22;49838;51.798;10.954;2023-08-20T04:06:59;27.40;44.50
64549;DHT22;49838;51.798;10.954;2023-08-20T04:09:26;27.40;44.40
64549;DHT22;49838;51.798;10.954;2023-08-20T04:11:54;27.40;44.40
64549;DHT22;49838;51.798;10.954;2023-08-20T04:14:21;27.40;44.30
64549;DHT22;49838;51.798;10.954;2023-08-20T04:16:48;27.40;44.30
64549;DHT22;49838;51.798;10.954;2023-08-20T04:19:16;27.50;44.30
64549;DHT22;49838;51.798;10.954;2023-08-20T04:21:44;27.50;44.10
64549;DHT22;49838;51.798;10.954;2023-08-20T04:24:12;27.60;44.10
64549;DHT22;49838;51.798;10.954;2023-08-20T04:26:39;27.60;44.10
64549;DHT22;49838;51.798;10.954;2023-08-20T04:29:06;27.60;44.10
64549;DHT22;49838;51.798;10.954;2023-08-20T04:31:34;27.60;44.30
64549;DHT22;49838;51.798;10.954;2023-08-20T04:34:01;27.60;44.30
64549;DHT22;49838;51.798;10.954;2023-08-20T04:36:28;27.60;44.30
64549;DHT22;49838;51.798;10.954;2023-08-20T04:38:57;27.60;44.30
64549;DHT22;49838;51.798;10.954;2023-08-20T04:41:24;27.70;44.40
64549;DHT22;49838;51.798;10.954;2023-08-20T04:43:52;27.70;44.50
64549;DHT22;49838;51.798;10.954;2023-08-20T04:46:19;27.70;44.40
64549;DHT22;49838;51.798;10.954;2023-08-20T04:48:47;27.70;45.00
64549;DHT22;49838;51.798;10.954;2023-08-20T04:51:14;27.70;44.30
64549;DHT22;49838;51.798;10.954;2023-08-20T04:53:41;27.80;44.30
64549;DHT22;49838;51.798;10.954;2023-08-20T04:56:10;27.80;44.30
64549;DHT22;49838;51.798;10.954;2023-08-20T04:58:37;27.90;44.30
64549;DHT22;49838;51.798;10.954;2023-08-20T05:01:04;28.00;44.20
64549;DHT22;49838;51.798;10.954;2023-08-20T05:03:33;28.00;44.10
64549;DHT22;49838;51.798;10.954;2023-08-20T05:06:00;28.10;44.10
64549;DHT22;49838;51.798;10.954;2023-08-20T05:08:28;28.10;44.10
64549;DHT22;49838;51.798;10.954;2023-08-20T05:10:55;28.20;44.40
64549;DHT22;49838;51.798;10.954;2023-08-20T05:13:24;28.10;44.20
64549;DHT22;49838;51.798;10.954;2023-08-20T05:15:51;28.10;44.20
64549;DHT22;49838;51.798;10.954;2023-08-20T05:18:18;28.20;44.30
64549;DHT22;49838;51.798;10.954;2023-08-20T05:20:45;28.20;44.40
64549;DHT22;49838;51.798;10.954;2023-08-20T05:23:13;28.20;44.50
64549;DHT22;49838;51.798;10.954;2023-08-20T05:25:40;28.10;44.70
64549;DHT22;49838;51.798;10.954;2023-08-20T05:28:07;28.10;44.70
64549;DHT22;49838;51.798;10.954;2023-08-20T05:30:36;28.20;45.20
64549;DHT22;49838;51.798;10.954;2023-08-20T05:33:04;28.20;45.90
64549;DHT22;49838;51.798;10.954;2023-08-20T05:35:31;28.10;45.00
64549;DHT22;49838;51.798;10.954;2023-08-20T05:37:58;28.10;45.00
64549;DHT22;49838;51.798;10.954;2023-08-20T05:40:26;28.10;45.00
64549;DHT22;49838;51.798;10.954;2023-08-20T05:42:53;28.10;44.90
64549;DHT22;49838;51.798;10.954;2023-08-20T05:45:20;28.30;44.80
64549;DHT22;49838;51.798;10.954;2023-08-20T05:47:49;28.40;44.60
64549;DHT22;49838;51.798;10.954;2023-08-20T05:50:16;28.40;45.10
64549;DHT22;49838;51.798;10.954;2023-08-20T05:52:43;28.30;45.20
64549;DHT22;49838;51.798;10.954;2023-08-20T05:55:11;28.20;45.30
64549;DHT22;49838;51.798;10.954;2023-08-20T05:57:38;28.20;45.20
64549;DHT22;49838;51.798;10.954;2023-08-20T06:00:07;28.30;45.20
64549;DHT22;49838;51.798;10.954;2023-08-20T06:02:35;28.30;44.90
64549;DHT22;49838;51.798;10.954;2023-08-20T06:05:04;28.40;44.90
64549;DHT22;49838;51.798;10.954;2023-08-20T06:07:32;28.60;44.70
64549;DHT22;49838;51.798;10.954;2023-08-20T06:09:59;28.80;44.70
64549;DHT22;49838;51.798;10.954;2023-08-20T06:12:27;29.00;44.40
64549;DHT22;49838;51.798;10.954;2023-08-20T06:14:54;29.20;44.30
64549;DHT22;49838;51.798;10.954;2023-08-20T06:17:21;29.30;44.20
64549;DHT22;49838;51.798;10.954;2023-08-20T06:19:49;29.50;44.20
64549;DHT22;49838;51.798;10.954;2023-08-20T06:22:18;29.60;44.10
64549;DHT22;49838;51.798;10.954;2023-08-20T06:24:45;29.60;44.10
64549;DHT22;49838;51.798;10.954;2023-08-20T06:27:12;29.70;44.20
64549;DHT22;49838;51.798;10.954;2023-08-20T06:29:39;29.80;44.40
64549;DHT22;49838;51.798;10.954;2023-08-20T06:32:07;29.80;44.50
64549;DHT22;49838;51.798;10.954;2023-08-20T06:34:34;30.00;44.30
64549;DHT22;49838;51.798;10.954;2023-08-20T06:37:02;30.20;44.30
64549;DHT22;49838;51.798;10.954;2023-08-20T06:39:31;30.40;44.30
64549;DHT22;49838;51.798;10.954;2023-08-20T06:41:58;30.50;44.30
64549;DHT22;49838;51.798;10.954;2023-08-20T06:44:25;30.50;44.40
64549;DHT22;49838;51.798;10.954;2023-08-20T06:46:53;30.30;44.60
64549;DHT22;49838;51.798;10.954;2023-08-20T06:49:20;30.20;44.60
64549;DHT22;49838;51.798;10.954;2023-08-20T06:51:47;30.10;44.60
64549;DHT22;49838;51.798;10.954;2023-08-20T06:54:15;29.90;45.30
64549;DHT22;49838;51.798;10.954;2023-08-20T06:56:43;29.90;44.70
64549;DHT22;49838;51.798;10.954;2023-08-20T06:59:11;29.90;44.60
64549;DHT22;49838;51.798;10.954;2023-08-20T07:01:38;30.10;44.50
64549;DHT22;49838;51.798;10.954;2023-08-20T07:04:05;30.10;44.40
64549;DHT22;49838;51.798;10.954;2023-08-20T07:06:32;30.20;44.50
64549;DHT22;49838;51.798;10.954;2023-08-20T07:09:00;30.10;44.60
64549;DHT22;49838;51.798;10.954;2023-08-20T07:11:29;30.20;44.50
64549;DHT22;49838;51.798;10.954;2023-08-20T07:13:58;30.50;44.40
64549;DHT22;49838;51.798;10.954;2023-08-20T07:16:25;31.10;44.60
64549;DHT22;49838;51.798;10.954;2023-08-20T07:18:52;31.70;44.80
64549;DHT22;49838;51.798;10.954;2023-08-20T07:21:20;32.00;45.40
64549;DHT22;49838;51.798;10.954;2023-08-20T07:23:47;32.40;44.60
64549;DHT22;49838;51.798;10.954;2023-08-20T07:26:14;32.70;44.50
64549;DHT22;49838;51.798;10.954;2023-08-20T07:28:42;33.10;44.50
64549;DHT22;49838;51.798;10.954;2023-08-20T07:31:27;33.40;44.40
64549;DHT22;49838;51.798;10.954;2023-08-20T07:33:55;33.90;44.50
64549;DHT22;49838;51.798;10.954;2023-08-20T07:36:23;34.40;44.60
64549;DHT22;49838;51.798;10.954;2023-08-20T07:38:52;34.90;44.50
64549;DHT22;49838;51.798;10.954;2023-08-20T07:41:20;35.40;44.60
64549;DHT22;49838;51.798;10.954;2023-08-20T07:43:48;35.90;44.30
64549;DHT22;49838;51.798;10.954;2023-08-20T07:46:16;36.40;44.10
64549;DHT22;49838;51.798;10.954;2023-08-20T07:48:44;36.90;43.50
64549;DHT22;49838;51.798;10.954;2023-08-20T07:51:12;37.30;43.60
64549;DHT22;49838;51.798;10.954;2023-08-20T07:53:39;37.70;43.70
64549;DHT22;49838;51.798;10.954;2023-08-20T07:56:06;38.10;43.30
64549;DHT22;49838;51.798;10.954;2023-08-20T07:58:34;38.60;43.10
64549;DHT22;49838;51.798;10.954;2023-08-20T08:01:02;38.90;42.50
64549;DHT22;49838;51.798;10.954;2023-08-20T08:03:29;39.30;42.20
64549;DHT22;49838;51.798;10.954;2023-08-20T08:05:58;39.60;41.70
64549;DHT22;49838;51.798;10.954;2023-08-20T08:08:25;39.90;41.40
64549;DHT22;49838;51.798;10.954;2023-08-20T08:10:52;40.20;41.10
64549;DHT22;49838;51.798;10.954;2023-08-20T08:13:20;40.60;40.90
64549;DHT22;49838;51.798;10.954;2023-08-20T08:15:48;40.90;40.40
64549;DHT22;49838;51.798;10.954;2023-08-20T08:18:17;41.10;40.00
64549;DHT22;49838;51.798;10.954;2023-08-20T08:20:44;41.40;39.50
64549;DHT22;49838;51.798;10.954;2023-08-20T08:23:13;41.50;39.30
64549;DHT22;49838;51.798;10.954;2023-08-20T08:25:40;41.60;39.10
64549;DHT22;49838;51.798;10.954;2023-08-20T08:28:08;41.80;39.00
64549;DHT22;49838;51.798;10.954;2023-08-20T08:30:35;42.00;38.80
64549;DHT22;49838;51.798;10.954;2023-08-20T08:33:03;42.20;38.70
64549;DHT22;49838;51.798;10.954;2023-08-20T08:35:31;42.50;38.50
64549;DHT22;49838;51.798;10.954;2023-08-20T08:37:58;42.70;38.40
64549;DHT22;49838;51.798;10.954;2023-08-20T08:40:28;43.00;38.20
64549;DHT22;49838;51.798;10.954;2023-08-20T08:42:56;43.30;38.10
64549;DHT22;49838;51.798;10.954;2023-08-20T08:45:24;43.30;37.50
64549;DHT22;49838;51.798;10.954;2023-08-20T08:47:53;43.00;37.10
64549;DHT22;49838;51.798;10.954;2023-08-20T08:50:21;42.90;37.00
64549;DHT22;49838;51.798;10.954;2023-08-20T08:52:50;42.90;37.00
64549;DHT22;49838;51.798;10.954;2023-08-20T08:55:18;43.00;37.00
64549;DHT22;49838;51.798;10.954;2023-08-20T08:57:47;43.30;37.00
64549;DHT22;49838;51.798;10.954;2023-08-20T09:00:15;43.50;36.40
64549;DHT22;49838;51.798;10.954;2023-08-20T09:02:42;43.70;36.50
64549;DHT22;49838;51.798;10.954;2023-08-20T09:05:10;43.90;36.10
64549;DHT22;49838;51.798;10.954;2023-08-20T09:07:41;43.90;36.00
64549;DHT22;49838;51.798;10.954;2023-08-20T09:10:10;44.00;35.70
64549;DHT22;49838;51.798;10.954;2023-08-20T09:12:38;43.70;35.80
64549;DHT22;49838;51.798;10.954;2023-08-20T09:15:10;43.50;36.00
64549;DHT22;49838;51.798;10.954;2023-08-20T09:17:40;43.50;36.10
64549;DHT22;49838;51.798;10.954;2023-08-20T09:20:08;43.60;35.90
64549;DHT22;49838;51.798;10.954;2023-08-20T09:22:36;43.90;36.00
64549;DHT22;49838;51.798;10.954;2023-08-20T09:25:04;44.00;35.60
64549;DHT22;49838;51.798;10.954;2023-08-20T09:27:38;44.10;35.20
64549;DHT22;49838;51.798;10.954;2023-08-20T09:30:07;44.00;34.80
64549;DHT22;49838;51.798;10.954;2023-08-20T09:32:36;43.90;34.60
64549;DHT22;49838;51.798;10.954;2023-08-20T09:35:03;43.90;34.20
64549;DHT22;49838;51.798;10.954;2023-08-20T09:37:31;43.80;33.80
64549;DHT22;49838;51.798;10.954;2023-08-20T09:39:59;43.60;33.70
64549;DHT22;49838;51.798;10.954;2023-08-20T09:42:27;43.50;33.70
64549;DHT22;49838;51.798;10.954;2023-08-20T09:44:58;43.60;33.70
64549;DHT22;49838;51.798;10.954;2023-08-20T09:47:30;43.70;34.20
64549;DHT22;49838;51.798;10.954;2023-08-20T09:50:03;43.70;34.10
64549;DHT22;49838;51.798;10.954;2023-08-20T09:52:38;44.00;34.40
64549;DHT22;49838;51.798;10.954;2023-08-20T09:55:07;43.90;34.20
64549;DHT22;49838;51.798;10.954;2023-08-20T09:57:36;44.10;33.90
64549;DHT22;49838;51.798;10.954;2023-08-20T10:00:05;44.30;34.10
64549;DHT22;49838;51.798;10.954;2023-08-20T10:02:35;44.40;34.00
64549;DHT22;49838;51.798;10.954;2023-08-20T10:05:05;44.30;33.70
64549;DHT22;49838;51.798;10.954;2023-08-20T10:07:43;44.20;33.20
64549;DHT22;49838;51.798;10.954;2023-08-20T10:10:15;44.30;33.70
64549;DHT22;49838;51.798;10.954;2023-08-20T10:12:43;44.30;33.60
64549;DHT22;49838;51.798;10.954;2023-08-20T10:15:12;44.40;33.60
64549;DHT22;49838;51.798;10.954;2023-08-20T10:17:41;44.40;33.70
64549;DHT22;49838;51.798;10.954;2023-08-20T10:20:13;44.40;33.70
64549;DHT22;49838;51.798;10.954;2023-08-20T10:22:45;44.20;33.00
64549;DHT22;49838;51.798;10.954;2023-08-20T10:25:21;43.90;32.60
64549;DHT22;49838;51.798;10.954;2023-08-20T10:27:50;43.70;32.60
64549;DHT22;49838;51.798;10.954;2023-08-20T10:30:18;43.30;32.80
64549;DHT22;49838;51.798;10.954;2023-08-20T10:32:51;42.90;32.00
64549;DHT22;49838;51.798;10.954;2023-08-20T10:35:22;42.60;32.60
64549;DHT22;49838;51.798;10.954;2023-08-20T10:38:05;42.50;32.60
64549;DHT22;49838;51.798;10.954;2023-08-20T10:43:26;42.50;33.20
64549;DHT22;49838;51.798;10.954;2023-08-20T10:46:06;42.60;33.20
64549;DHT22;49838;51.798;10.954;2023-08-20T10:48:35;42.80;33.60
64549;DHT22;49838;51.798;10.954;2023-08-20T10:51:08;43.00;33.80
64549;DHT22;49838;51.798;10.954;2023-08-20T10:53:36;43.30;33.90
64549;DHT22;49838;51.798;10.954;2023-08-20T10:56:10;43.50;33.80
64549;DHT22;49838;51.798;10.954;2023-08-20T10:58:43;43.70;33.60
64549;DHT22;49838;51.798;10.954;2023-08-20T11:01:17;43.70;33.50
64549;DHT22;49838;51.798;10.954;2023-08-20T11:03:46;43.30;33.00
64549;DHT22;49838;51.798;10.954;2023-08-20T11:06:17;42.90;32.40
64549;DHT22;49838;51.798;10.954;2023-08-20T11:08:45;42.50;32.60
64549;DHT22;49838;51.798;10.954;2023-08-20T11:11:13;42.10;33.00
64549;DHT22;49838;51.798;10.954;2023-08-20T11:13:40;41.90;33.20
64549;DHT22;49838;51.798;10.954;2023-08-20T11:16:08;41.70;33.10
64549;DHT22;49838;51.798;10.954;2023-08-20T11:18:36;41.50;33.20
64549;DHT22;49838;51.798;10.954;2023-08-20T11:21:07;41.20;32.60
64549;DHT22;49838;51.798;10.954;2023-08-20T11:23:37;40.90;32.70
64549;DHT22;49838;51.798;10.954;2023-08-20T11:26:07;40.80;33.10
64549;DHT22;49838;51.798;10.954;2023-08-20T11:28:35;40.60;33.20
64549;DHT22;49838;51.798;10.954;2023-08-20T11:31:02;40.60;33.20
64549;DHT22;49838;51.798;10.954;2023-08-20T11:33:29;40.60;33.20
64549;DHT22;49838;51.798;10.954;2023-08-20T11:35:57;40.60;33.20
64549;DHT22;49838;51.798;10.954;2023-08-20T11:38:24;40.50;33.10
64549;DHT22;49838;51.798;10.954;2023-08-20T11:40:55;40.30;33.10
64549;DHT22;49838;51.798;10.954;2023-08-20T11:43:23;40.10;33.30
64549;DHT22;49838;51.798;10.954;2023-08-20T11:45:55;39.90;33.50
64549;DHT22;49838;51.798;10.954;2023-08-20T11:48:22;39.70;33.50
64549;DHT22;49838;51.798;10.954;2023-08-20T11:50:51;39.40;33.70
64549;DHT22;49838;51.798;10.954;2023-08-20T11:53:20;39.30;33.80
64549;DHT22;49838;51.798;10.954;2023-08-20T11:55:49;39.20;33.70
64549;DHT22;49838;51.798;10.954;2023-08-20T11:58:20;39.00;33.70
64549;DHT22;49838;51.798;10.954;2023-08-20T12:00:49;38.70;33.70
64549;DHT22;49838;51.798;10.954;2023-08-20T12:03:17;38.60;33.90
64549;DHT22;49838;51.798;10.954;2023-08-20T12:05:45;38.50;34.10
64549;DHT22;49838;51.798;10.954;2023-08-20T12:08:15;38.50;34.00
64549;DHT22;49838;51.798;10.954;2023-08-20T12:10:43;38.50;34.00
64549;DHT22;49838;51.798;10.954;2023-08-20T12:13:11;38.50;34.00
64549;DHT22;49838;51.798;10.954;2023-08-20T12:15:39;38.40;34.00
64549;DHT22;49838;51.798;10.954;2023-08-20T12:18:09;38.30;34.10
64549;DHT22;49838;51.798;10.954;2023-08-20T12:20:37;38.30;34.00
64549;DHT22;49838;51.798;10.954;2023-08-20T12:23:05;38.40;34.10
64549;DHT22;49838;51.798;10.954;2023-08-20T12:25:34;38.50;34.20
64549;DHT22;49838;51.798;10.954;2023-08-20T12:28:02;38.50;34.10
64549;DHT22;49838;51.798;10.954;2023-08-20T12:30:31;38.50;34.00
64549;DHT22;49838;51.798;10.954;2023-08-20T12:33:03;38.50;34.00
64549;DHT22;49838;51.798;10.954;2023-08-20T12:35:33;38.50;34.00
64549;DHT22;49838;51.798;10.954;2023-08-20T12:38:01;38.50;34.10
64549;DHT22;49838;51.798;10.954;2023-08-20T12:40:28;38.50;34.10
64549;DHT22;49838;51.798;10.954;2023-08-20T12:42:56;38.40;34.10
64549;DHT22;49838;51.798;10.954;2023-08-20T12:45:23;38.60;34.10
64549;DHT22;49838;51.798;10.954;2023-08-20T12:47:51;38.70;34.00
64549;DHT22;49838;51.798;10.954;2023-08-20T12:50:19;38.60;34.00
64549;DHT22;49838;51.798;10.954;2023-08-20T12:52:47;38.50;34.20
64549;DHT22;49838;51.798;10.954;2023-08-20T12:55:16;38.40;34.30
64549;DHT22;49838;51.798;10.954;2023-08-20T12:57:51;38.30;34.40
64549;DHT22;49838;51.798;10.954;2023-08-20T13:00:20;38.20;34.50
64549;DHT22;49838;51.798;10.954;2023-08-20T13:02:48;38.00;34.40
64549;DHT22;49838;51.798;10.954;2023-08-20T13:05:16;37.90;34.40
64549;DHT22;49838;51.798;10.954;2023-08-20T13:07:45;37.70;34.50
64549;DHT22;49838;51.798;10.954;2023-08-20T13:10:16;37.60;34.60
64549;DHT22;49838;51.798;10.954;2023-08-20T13:12:45;37.50;34.60
64549;DHT22;49838;51.798;10.954;2023-08-20T13:15:15;37.40;34.60
64549;DHT22;49838;51.798;10.954;2023-08-20T13:17:48;37.30;34.60
64549;DHT22;49838;51.798;10.954;2023-08-20T13:20:16;37.10;34.60
64549;DHT22;49838;51.798;10.954;2023-08-20T13:22:48;36.90;34.70
64549;DHT22;49838;51.798;10.954;2023-08-20T13:25:16;36.80;34.80
64549;DHT22;49838;51.798;10.954;2023-08-20T13:27:43;36.70;35.00
64549;DHT22;49838;51.798;10.954;2023-08-20T13:30:11;36.50;35.00
64549;DHT22;49838;51.798;10.954;2023-08-20T13:32:38;36.40;35.20
64549;DHT22;49838;51.798;10.954;2023-08-20T13:35:06;36.30;35.20
64549;DHT22;49838;51.798;10.954;2023-08-20T13:37:34;36.20;35.20
64549;DHT22;49838;51.798;10.954;2023-08-20T13:40:03;36.20;35.30
64549;DHT22;49838;51.798;10.954;2023-08-20T13:42:32;36.20;35.20
64549;DHT22;49838;51.798;10.954;2023-08-20T13:45:00;36.20;35.10
64549;DHT22;49838;51.798;10.954;2023-08-20T13:47:27;36.30;35.10
64549;DHT22;49838;51.798;10.954;2023-08-20T13:49:54;36.50;35.00
64549;DHT22;49838;51.798;10.954;2023-08-20T13:52:22;36.70;34.90
64549;DHT22;49838;51.798;10.954;2023-08-20T13:54:49;36.80;35.50
64549;DHT22;49838;51.798;10.954;2023-08-20T13:57:18;36.80;34.80
64549;DHT22;49838;51.798;10.954;2023-08-20T13:59:45;37.00;34.70
64549;DHT22;49838;51.798;10.954;2023-08-20T14:02:13;37.10;34.60
64549;DHT22;49838;51.798;10.954;2023-08-20T14:04:42;37.30;34.60
64549;DHT22;49838;51.798;10.954;2023-08-20T14:07:09;37.30;34.60
64549;DHT22;49838;51.798;10.954;2023-08-20T14:09:36;37.40;34.60
64549;DHT22;49838;51.798;10.954;2023-08-20T14:12:06;37.30;34.70
64549;DHT22;49838;51.798;10.954;2023-08-20T14:14:35;37.30;34.90
64549;DHT22;49838;51.798;10.954;2023-08-20T14:17:02;37.20;34.80
64549;DHT22;49838;51.798;10.954;2023-08-20T14:19:29;37.20;35.00
64549;DHT22;49838;51.798;10.954;2023-08-20T14:21:57;37.10;35.10
64549;DHT22;49838;51.798;10.954;2023-08-20T14:24:24;37.00;35.20
64549;DHT22;49838;51.798;10.954;2023-08-20T14:26:51;36.90;35.20
64549;DHT22;49838;51.798;10.954;2023-08-20T14:29:18;36.90;35.30
64549;DHT22;49838;51.798;10.954;2023-08-20T14:31:47;36.80;35.30
64549;DHT22;49838;51.798;10.954;2023-08-20T14:34:15;36.80;35.50
64549;DHT22;49838;51.798;10.954;2023-08-20T14:36:47;36.70;35.50
64549;DHT22;49838;51.798;10.954;2023-08-20T14:39:17;36.60;35.50
64549;DHT22;49838;51.798;10.954;2023-08-20T14:41:44;36.50;35.50
64549;DHT22;49838;51.798;10.954;2023-08-20T14:44:11;36.60;35.60
64549;DHT22;49838;51.798;10.954;2023-08-20T14:46:39;36.50;35.50
64549;DHT22;49838;51.798;10.954;2023-08-20T14:49:07;36.50;35.50
64549;DHT22;49838;51.798;10.954;2023-08-20T14:51:35;36.50;35.40
64549;DHT22;49838;51.798;10.954;2023-08-20T14:54:02;36.60;35.30
64549;DHT22;49838;51.798;10.954;2023-08-20T14:56:30;36.70;35.30
64549;DHT22;49838;51.798;10.954;2023-08-20T14:58:57;36.70;35.20
64549;DHT22;49838;51.798;10.954;2023-08-20T15:01:26;36.70;35.30
64549;DHT22;49838;51.798;10.954;2023-08-20T15:03:55;36.70;35.40
64549;DHT22;49838;51.798;10.954;2023-08-20T15:06:26;36.60;35.50
64549;DHT22;49838;51.798;10.954;2023-08-20T15:08:54;36.50;35.60
64549;DHT22;49838;51.798;10.954;2023-08-20T15:11:21;36.30;35.60
64549;DHT22;49838;51.798;10.954;2023-08-20T15:13:48;36.20;35.70
64549;DHT22;49838;51.798;10.954;2023-08-20T15:16:17;36.10;35.70
64549;DHT22;49838;51.798;10.954;2023-08-20T15:18:45;36.00;35.80
64549;DHT22;49838;51.798;10.954;2023-08-20T15:21:15;35.90;35.70
64549;DHT22;49838;51.798;10.954;2023-08-20T15:23:43;35.70;35.70
64549;DHT22;49838;51.798;10.954;2023-08-20T15:26:13;35.70;35.80